Aviation Digital Data Service (ADDS)

Output produced by TAFs form (0649 UTC 21 December 2014)
found at http://aviationweather.gov/adds/tafs/
 
KFMN 210529Z 2106/2206 VRB04KT P6SM BKN060 
     FM211900 27010G18KT P6SM SCT035 SCT200 
     FM220100 26006KT P6SM SCT040 SCT200